Kalevala, Russia
Current Conditions -  °F | °C
As of 5:50 AM on Sunday 26 Oct 2014 (Local Time) from EFKS Reporting Station
Unknown Precip Unknown Precip  
Wind Chill: 28°   Ceiling: 300
Heat Index: 34°   Visibility: 6mi
Dew Point: 34°   Wind: 7mph
Humidity: 100%   Direction: 180°S
Pressure: 29.8"   Gusts: NA
Location:  65.2°N, 31.17°E
Report Text: EFKS 260250Z AUTO 18006KT 9000 -UP OVC003 01/01 Q1009
Loading
Personal Weather Stations






























Interactive Weather Map
Tropical Storm Tracking
New forecast layout! Learn more

10-Day Weather Forecast

Advertisements
Track Severe Weather on mobile